airplane image

note

mic

electronics

Fly Music Sound

What-else

 

 

 

 

LSZB

[Source: ADDS]
METAR
LSZB 281150Z 12005KT 070V170 9999 FEW032 BKN050 08/05 Q0996 NOSIG =
TAF
LSZB 281125Z 2812/2821 13006KT 9999 FEW004 SCT010 BKN120 BECMG 2812/2814 25015G25KT SHRA SCT030TCU TEMPO 2812/2818 26020G40KT PROB30 TEMPO 2813/2821 TSRA SCT030CB =

LSZG

[Source: ADDS]
METAR
LSZG 281150Z VRB01KT 8000 -RA FEW010 SCT028 BKN038 04/02 Q0997 NOSIG =
TAF
LSZG 281125Z 2812/2821 22008KT 9999 BKN007 BKN050 BECMG 2812/2814 22015G30KT SHRA SCT020TCU BKN030 TEMPO 2813/2818 24020G40KT PROB40 TEMPO 2813/2821 4000 TSRAGS SCT030CB =

LSZH

[Source: ADDS]
METAR
LSZH 281150Z VRB03KT 9999 FEW008 SCT013 BKN120 04/02 Q0997 NOSIG =
TAF
LSZH 281125Z 2812/0118 12005KT 9999 FEW008 SCT095 BKN130 TX07/2814Z TN02/0106Z TX08/0114Z BECMG 2813/2815 24015G30KT TEMPO 2813/0109 SHRA SCT030TCU TEMPO 2814/2818 26020G45KT PROB40 TEMPO 2814/2823 4000 TSRAGS SCT040CB BECMG 2821/2824 25012KT TEMPO 2823/0115 26015G30KT PROB30 TEMPO 2822/0108 4000 SHGS SCT010TCU BKN012 PROB40 TEMPO 0104/0109 SHRASN =